createdAt,value
2022-12-08T00:02:22.321Z,-2.21
2022-12-08T00:05:41.670Z,-2.14
2022-12-08T00:09:13.636Z,-2.18
2022-12-08T00:12:06.011Z,-2.03
2022-12-08T00:14:55.450Z,-2.03
2022-12-08T00:17:36.574Z,-2.05
2022-12-08T00:20:12.025Z,-2.10
2022-12-08T00:22:55.045Z,-2.05
2022-12-08T00:25:36.071Z,-2.10
2022-12-08T00:28:16.165Z,-2.11
2022-12-08T00:31:03.695Z,-2.04
2022-12-08T00:34:01.118Z,-1.73
2022-12-08T00:36:45.485Z,-1.76
2022-12-08T00:39:29.076Z,-1.77
2022-12-08T00:42:18.771Z,-1.87
2022-12-08T00:44:59.744Z,-1.91
2022-12-08T00:47:49.638Z,-1.95
2022-12-08T00:50:33.225Z,-2.07
2022-12-08T00:53:17.253Z,-2.03
2022-12-08T00:55:55.259Z,-2.04
2022-12-08T00:58:38.289Z,-2.01
2022-12-08T01:01:33.628Z,-1.98
2022-12-08T01:04:30.250Z,-1.98
2022-12-08T01:07:16.421Z,-1.87
2022-12-08T01:09:54.103Z,-1.85
2022-12-08T01:12:35.892Z,-1.75
2022-12-08T01:15:20.109Z,-1.55
2022-12-08T01:18:05.111Z,-1.47
2022-12-08T01:20:45.749Z,-1.38
2022-12-08T01:23:37.663Z,-1.36
2022-12-08T01:26:23.154Z,-1.50
2022-12-08T01:29:15.209Z,-1.57
2022-12-08T01:31:59.812Z,-1.76
2022-12-08T01:34:47.681Z,-1.78
2022-12-08T01:37:27.756Z,-1.85
2022-12-08T01:40:06.853Z,-1.85
2022-12-08T01:42:53.558Z,-1.90
2022-12-08T01:45:34.924Z,-1.88
2022-12-08T01:48:34.210Z,-1.80
2022-12-08T01:51:15.714Z,-1.92
2022-12-08T01:53:51.862Z,-1.96
2022-12-08T01:56:47.646Z,-1.86
2022-12-08T01:59:34.798Z,-2.13
2022-12-08T02:02:32.618Z,-2.17
2022-12-08T02:05:31.568Z,-2.16
2022-12-08T02:08:16.453Z,-2.23
2022-12-08T02:10:50.518Z,-2.09
2022-12-08T02:13:32.618Z,-2.21
2022-12-08T02:16:42.368Z,-2.12
2022-12-08T02:19:41.543Z,-2.23
2022-12-08T02:22:29.886Z,-2.06
2022-12-08T02:25:17.844Z,-2.06
2022-12-08T02:28:15.237Z,-1.97
2022-12-08T02:32:02.704Z,-2.03
2022-12-08T02:34:53.252Z,-2.08
2022-12-08T02:38:11.645Z,-2.19
2022-12-08T02:41:13.776Z,-2.15
2022-12-08T02:44:16.319Z,-2.31
2022-12-08T02:47:06.718Z,-2.22
2022-12-08T02:49:47.538Z,-2.14
2022-12-08T02:52:43.852Z,-2.15
2022-12-08T02:55:39.491Z,-2.15
2022-12-08T02:58:53.997Z,-2.17
2022-12-08T03:01:54.052Z,-2.24
2022-12-08T03:04:51.197Z,-2.10
2022-12-08T03:07:34.385Z,-2.01
2022-12-08T03:10:47.247Z,-2.15
2022-12-08T03:13:35.767Z,-2.19
2022-12-08T03:16:22.647Z,-2.16
2022-12-08T03:19:20.029Z,-1.92
2022-12-08T03:22:05.430Z,-1.88
2022-12-08T03:24:43.794Z,-1.93
2022-12-08T03:27:31.214Z,-1.98
2022-12-08T03:30:09.305Z,-1.97
2022-12-08T03:33:14.661Z,-2.01
2022-12-08T03:35:57.486Z,-2.07
2022-12-08T03:38:52.543Z,-2.10
2022-12-08T03:41:35.823Z,-1.99
2022-12-08T03:44:21.710Z,-1.95
2022-12-08T03:46:57.002Z,-1.93
2022-12-08T03:49:39.988Z,-1.83
2022-12-08T03:52:26.441Z,-1.70
2022-12-08T03:55:04.355Z,-1.77
2022-12-08T03:57:42.289Z,-1.74
2022-12-08T04:00:20.101Z,-1.81
2022-12-08T04:03:00.623Z,-1.73
2022-12-08T04:05:44.250Z,-1.71
2022-12-08T04:08:30.123Z,-1.69
2022-12-08T04:11:19.193Z,-1.66
2022-12-08T04:14:03.060Z,-1.62
2022-12-08T04:16:53.172Z,-1.66
2022-12-08T04:19:40.127Z,-1.63
2022-12-08T04:22:20.706Z,-1.50
2022-12-08T04:25:09.715Z,-1.56
2022-12-08T04:27:53.331Z,-1.57
2022-12-08T04:30:39.477Z,-1.55
2022-12-08T04:33:25.039Z,-1.49
2022-12-08T04:36:09.801Z,-1.54
2022-12-08T04:38:52.735Z,-1.43
2022-12-08T04:41:51.194Z,-1.31
2022-12-08T04:44:33.036Z,-1.45
2022-12-08T04:47:21.073Z,-1.40
2022-12-08T04:50:08.291Z,-1.33
2022-12-08T04:52:49.270Z,-1.36
2022-12-08T04:55:33.824Z,-1.45
2022-12-08T04:58:17.739Z,-1.40
2022-12-08T05:00:56.255Z,-1.45
2022-12-08T05:03:36.675Z,-1.35
2022-12-08T05:06:19.183Z,-1.41
2022-12-08T05:09:04.799Z,-1.45
2022-12-08T05:11:46.946Z,-1.45
2022-12-08T05:14:30.059Z,-1.43
2022-12-08T05:17:10.600Z,-1.34
2022-12-08T05:19:56.266Z,-1.29
2022-12-08T05:22:39.141Z,-1.26
2022-12-08T05:25:27.627Z,-1.24
2022-12-08T05:28:39.694Z,-1.12
2022-12-08T05:31:11.226Z,-1.11
2022-12-08T05:33:53.347Z,-1.16
2022-12-08T05:36:45.619Z,-1.12
2022-12-08T05:39:36.310Z,-1.10
2022-12-08T05:42:24.582Z,-0.94
2022-12-08T05:45:13.328Z,-1.20
2022-12-08T05:47:56.954Z,-1.09
2022-12-08T05:50:40.733Z,-1.08
2022-12-08T05:53:29.524Z,-1.12
2022-12-08T05:56:35.185Z,-1.10
2022-12-08T05:59:19.482Z,-1.08
2022-12-08T06:01:57.439Z,-0.89
2022-12-08T06:04:54.281Z,-1.02
2022-12-08T06:07:38.539Z,-0.92
2022-12-08T06:10:22.051Z,-1.03
2022-12-08T06:13:05.524Z,-0.93
2022-12-08T06:15:51.196Z,-0.81
2022-12-08T06:18:32.723Z,-0.88
2022-12-08T06:21:14.988Z,-0.91
2022-12-08T06:24:01.948Z,-0.94
2022-12-08T06:26:56.452Z,-0.96
2022-12-08T06:29:43.107Z,-0.88
2022-12-08T06:32:27.565Z,-0.83
2022-12-08T06:35:13.842Z,-0.79
2022-12-08T06:38:02.642Z,-0.75
2022-12-08T06:40:52.509Z,-0.72
2022-12-08T06:43:35.567Z,-0.65
2022-12-08T06:46:15.809Z,-0.57
2022-12-08T06:48:56.479Z,-0.67
2022-12-08T06:51:34.564Z,-0.64
2022-12-08T06:54:26.246Z,-0.59
2022-12-08T06:57:07.110Z,-0.53
2022-12-08T06:59:48.005Z,-0.52
2022-12-08T07:02:26.300Z,-0.43
2022-12-08T07:05:07.040Z,-0.35
2022-12-08T07:07:47.994Z,-0.12
2022-12-08T07:10:34.799Z,-0.04
2022-12-08T07:13:09.292Z,-0.16
2022-12-08T07:15:56.532Z,0.01
2022-12-08T07:18:34.910Z,-0.12
2022-12-08T07:21:23.873Z,0.04
2022-12-08T07:24:13.260Z,0.05
2022-12-08T07:26:51.253Z,0.38
2022-12-08T07:29:45.650Z,0.26
2022-12-08T07:32:30.948Z,0.32
2022-12-08T07:35:05.886Z,0.29
2022-12-08T07:37:55.587Z,0.32
2022-12-08T07:40:49.460Z,0.45
2022-12-08T07:43:35.098Z,0.49
2022-12-08T07:46:14.294Z,0.59
2022-12-08T07:48:58.009Z,0.56
2022-12-08T07:51:40.724Z,0.52
2022-12-08T07:54:28.227Z,0.57
2022-12-08T07:57:15.118Z,0.67
2022-12-08T07:59:57.191Z,0.73
2022-12-08T08:02:41.514Z,0.83
2022-12-08T08:05:18.010Z,0.85
2022-12-08T08:08:04.111Z,0.89
2022-12-08T08:10:58.576Z,0.87
2022-12-08T08:13:56.387Z,0.88
2022-12-08T08:16:33.492Z,1.00
2022-12-08T08:19:26.118Z,1.02
2022-12-08T08:22:09.244Z,1.16
2022-12-08T08:25:10.798Z,1.39
2022-12-08T08:27:54.731Z,1.61
2022-12-08T08:30:32.944Z,1.66
2022-12-08T08:33:21.977Z,1.89
2022-12-08T08:36:23.736Z,1.95
2022-12-08T08:39:12.925Z,2.08
2022-12-08T08:41:56.034Z,2.15
2022-12-08T08:44:39.575Z,2.07
2022-12-08T08:47:15.361Z,2.18
2022-12-08T08:50:01.426Z,2.16
2022-12-08T08:52:45.084Z,2.21
2022-12-08T08:55:26.624Z,2.19
2022-12-08T08:58:10.208Z,2.22
2022-12-08T09:00:53.806Z,2.32
2022-12-08T09:03:46.978Z,2.50
2022-12-08T09:06:31.015Z,2.66
2022-12-08T09:09:42.439Z,2.79
2022-12-08T09:12:27.950Z,2.74
2022-12-08T09:15:35.218Z,2.79
2022-12-08T09:18:13.939Z,2.92
2022-12-08T09:20:57.138Z,2.92
2022-12-08T09:23:47.091Z,2.92
2022-12-08T09:26:32.735Z,3.05
2022-12-08T09:29:21.806Z,3.09
2022-12-08T09:32:07.709Z,3.12
2022-12-08T09:34:55.787Z,3.32
2022-12-08T09:37:40.395Z,3.11
2022-12-08T09:40:45.122Z,3.24
2022-12-08T09:44:09.529Z,3.24
2022-12-08T09:46:53.704Z,3.24
2022-12-08T09:49:46.023Z,3.17
2022-12-08T09:52:38.699Z,3.21
2022-12-08T09:55:41.799Z,3.15
2022-12-08T09:58:47.637Z,3.11
2022-12-08T10:01:24.741Z,3.06
2022-12-08T10:04:08.351Z,3.20
2022-12-08T10:06:59.351Z,3.18
2022-12-08T10:09:54.655Z,3.30
2022-12-08T10:12:56.531Z,3.19
2022-12-08T10:16:00.935Z,3.22
2022-12-08T10:18:43.669Z,3.32
2022-12-08T10:21:33.105Z,3.22
2022-12-08T10:24:17.792Z,3.36
2022-12-08T10:27:00.133Z,3.56
2022-12-08T10:29:45.983Z,3.67
2022-12-08T10:32:39.600Z,3.74
2022-12-08T10:35:32.519Z,3.76
2022-12-08T10:38:19.588Z,3.54
2022-12-08T10:41:07.622Z,3.49
2022-12-08T10:44:01.643Z,3.48
2022-12-08T10:46:46.746Z,3.43
2022-12-08T10:49:38.842Z,3.51
2022-12-08T10:52:35.628Z,3.37
2022-12-08T10:55:35.252Z,3.63
2022-12-08T10:58:30.867Z,3.69
2022-12-08T11:01:20.567Z,3.75
2022-12-08T11:04:19.901Z,3.88
2022-12-08T11:07:11.605Z,3.91
2022-12-08T11:10:01.178Z,3.74
2022-12-08T11:12:41.680Z,3.83
2022-12-08T11:15:33.561Z,3.98
2022-12-08T11:18:27.821Z,4.02
2022-12-08T11:21:51.104Z,3.80
2022-12-08T11:24:40.570Z,3.88
2022-12-08T11:27:29.969Z,4.01
2022-12-08T11:30:14.510Z,3.94
2022-12-08T11:33:06.989Z,3.93
2022-12-08T11:36:05.280Z,3.83
2022-12-08T11:39:00.618Z,3.90
2022-12-08T11:41:45.069Z,4.02
2022-12-08T11:44:43.071Z,4.23
2022-12-08T11:47:37.099Z,4.32
2022-12-08T11:50:54.293Z,4.25
2022-12-08T11:53:59.171Z,3.93
2022-12-08T11:56:46.477Z,4.03
2022-12-08T11:59:39.686Z,4.07
2022-12-08T12:02:27.725Z,4.05
2022-12-08T12:06:13.250Z,3.72
2022-12-08T12:09:44.323Z,3.64
2022-12-08T12:12:50.690Z,3.84
2022-12-08T12:15:44.725Z,3.66
2022-12-08T12:18:40.372Z,3.78
2022-12-08T12:21:47.510Z,3.97
2022-12-08T12:24:35.525Z,3.94
2022-12-08T12:27:57.090Z,4.02
2022-12-08T12:31:00.624Z,4.05
2022-12-08T12:33:45.073Z,4.11
2022-12-08T12:36:23.541Z,3.73
2022-12-08T12:39:26.176Z,3.82
2022-12-08T12:42:14.540Z,3.75
2022-12-08T12:45:22.494Z,3.86
2022-12-08T12:48:26.994Z,3.90
2022-12-08T12:51:32.292Z,3.88
2022-12-08T12:54:33.549Z,3.87
2022-12-08T12:57:20.912Z,3.92
2022-12-08T13:00:02.011Z,3.80
2022-12-08T13:02:42.277Z,3.78
2022-12-08T13:05:41.868Z,3.45
2022-12-08T13:08:34.652Z,3.40
2022-12-08T13:11:29.913Z,3.43
2022-12-08T13:14:43.956Z,3.37
2022-12-08T13:17:30.647Z,3.28
2022-12-08T13:20:20.754Z,3.29
2022-12-08T13:23:35.227Z,3.23
2022-12-08T13:27:01.485Z,3.28
2022-12-08T13:29:45.567Z,3.19
2022-12-08T13:33:17.282Z,3.20
2022-12-08T13:36:06.144Z,3.19
2022-12-08T13:38:51.484Z,3.19
2022-12-08T13:41:43.074Z,3.15
2022-12-08T13:48:13.628Z,3.03
2022-12-08T13:58:00.753Z,3.23
2022-12-08T14:00:40.059Z,3.27
2022-12-08T14:03:35.648Z,3.24
2022-12-08T14:06:35.595Z,3.39
2022-12-08T14:09:24.722Z,3.42
2022-12-08T14:12:28.446Z,3.39
2022-12-08T14:15:15.075Z,3.37
2022-12-08T14:18:06.350Z,3.39
2022-12-08T14:21:19.925Z,3.28
2022-12-08T14:24:03.967Z,3.23
2022-12-08T14:26:49.584Z,3.26
2022-12-08T14:29:50.413Z,3.05
2022-12-08T14:32:36.294Z,3.20
2022-12-08T14:35:25.712Z,3.16
2022-12-08T14:38:18.036Z,3.16
2022-12-08T14:41:26.476Z,3.18
2022-12-08T14:44:25.141Z,3.35
2022-12-08T14:47:21.497Z,3.26
2022-12-08T14:50:03.468Z,3.24
2022-12-08T14:52:54.272Z,3.35
2022-12-08T14:55:51.579Z,3.13
2022-12-08T14:58:36.972Z,3.32
2022-12-08T15:01:28.549Z,3.27
2022-12-08T15:04:38.421Z,3.21
2022-12-08T15:07:22.749Z,3.10
2022-12-08T15:10:30.814Z,3.17
2022-12-08T15:13:25.788Z,3.33
2022-12-08T15:16:04.336Z,3.37
2022-12-08T15:19:16.491Z,3.26
2022-12-08T15:22:18.516Z,3.25
2022-12-08T15:24:56.451Z,3.17
2022-12-08T15:27:50.477Z,3.41
2022-12-08T15:30:31.994Z,3.42
2022-12-08T15:33:24.582Z,3.28
2022-12-08T15:36:09.456Z,3.33
2022-12-08T15:38:51.615Z,3.34
2022-12-08T15:41:32.854Z,3.33
2022-12-08T15:44:13.693Z,3.40
2022-12-08T15:47:08.629Z,3.24
2022-12-08T15:49:53.563Z,3.32
2022-12-08T15:52:37.030Z,3.33
2022-12-08T15:55:25.306Z,3.34
2022-12-08T16:01:22.692Z,3.32
2022-12-08T16:07:25.031Z,3.40
2022-12-08T16:10:12.429Z,3.39
2022-12-08T16:13:55.696Z,3.40
2022-12-08T16:16:24.672Z,3.33
2022-12-08T16:19:18.672Z,3.26
2022-12-08T16:22:44.959Z,3.20
2022-12-08T16:25:24.534Z,3.28
2022-12-08T16:28:52.044Z,3.36
2022-12-08T16:31:30.168Z,3.41
2022-12-08T16:34:11.586Z,3.46
2022-12-08T16:37:03.174Z,3.54
2022-12-08T16:39:54.073Z,3.63
2022-12-08T16:42:49.291Z,3.68
2022-12-08T16:45:45.208Z,3.54
2022-12-08T16:48:30.855Z,3.59
2022-12-08T16:51:12.710Z,3.68
2022-12-08T16:54:07.399Z,3.54
2022-12-08T16:56:56.399Z,3.49
2022-12-08T16:59:36.914Z,3.53
2022-12-08T17:02:26.537Z,3.63
2022-12-08T17:05:10.570Z,3.73
2022-12-08T17:07:57.777Z,3.65
2022-12-08T17:10:44.286Z,3.67
2022-12-08T17:13:35.870Z,3.65
2022-12-08T17:16:27.338Z,3.54
2022-12-08T17:19:17.612Z,3.53
2022-12-08T17:22:08.347Z,3.53
2022-12-08T17:24:54.020Z,3.52
2022-12-08T17:27:42.842Z,3.58
2022-12-08T17:30:23.752Z,3.50
2022-12-08T17:33:11.859Z,3.44
2022-12-08T17:36:10.228Z,3.40
2022-12-08T17:39:02.764Z,3.48
2022-12-08T17:41:51.081Z,3.43
2022-12-08T17:44:41.723Z,3.37
2022-12-08T17:47:25.809Z,3.47
2022-12-08T17:50:17.366Z,3.41
2022-12-08T17:53:04.260Z,3.45
2022-12-08T17:55:54.191Z,3.43
2022-12-08T17:58:39.447Z,3.42
2022-12-08T18:01:27.281Z,3.44
2022-12-08T18:04:11.485Z,3.33
2022-12-08T18:06:55.042Z,3.31
2022-12-08T18:09:36.726Z,3.30
2022-12-08T18:12:23.418Z,3.30
2022-12-08T18:15:08.888Z,3.39
2022-12-08T18:18:04.886Z,3.46
2022-12-08T18:20:50.894Z,3.36
2022-12-08T18:23:52.772Z,3.34
2022-12-08T18:26:36.281Z,3.36
2022-12-08T18:29:16.262Z,3.32
2022-12-08T18:32:00.572Z,3.24
2022-12-08T18:34:54.382Z,3.23
2022-12-08T18:37:35.978Z,3.19
2022-12-08T18:40:20.525Z,3.29
2022-12-08T18:43:06.285Z,3.34
2022-12-08T18:45:47.004Z,3.36
2022-12-08T18:48:35.767Z,3.32
2022-12-08T18:51:32.435Z,3.34
2022-12-08T18:54:27.718Z,3.23
2022-12-08T18:57:25.094Z,3.26
2022-12-08T19:00:06.478Z,3.20
2022-12-08T19:02:56.644Z,3.02
2022-12-08T19:05:44.178Z,3.07
2022-12-08T19:08:31.358Z,3.22
2022-12-08T19:11:26.553Z,3.24
2022-12-08T19:14:07.486Z,3.32
2022-12-08T19:16:46.204Z,3.19
2022-12-08T19:19:27.709Z,3.29
2022-12-08T19:22:10.082Z,3.26
2022-12-08T19:24:52.980Z,3.18
2022-12-08T19:27:34.544Z,3.15
2022-12-08T19:30:14.897Z,3.14
2022-12-08T19:33:03.688Z,3.17
2022-12-08T19:36:02.642Z,3.25
2022-12-08T19:39:08.113Z,3.38
2022-12-08T19:42:19.022Z,3.33
2022-12-08T19:45:11.224Z,3.21
2022-12-08T19:47:57.583Z,3.24
2022-12-08T19:50:41.923Z,3.20
2022-12-08T19:53:23.628Z,3.14
2022-12-08T19:56:07.353Z,3.12
2022-12-08T19:58:43.084Z,3.22
2022-12-08T20:01:33.276Z,3.21
2022-12-08T20:04:18.353Z,3.21
2022-12-08T20:07:05.456Z,3.15
2022-12-08T20:09:47.156Z,3.22
2022-12-08T20:12:34.443Z,3.23
2022-12-08T20:18:14.229Z,3.15
2022-12-08T20:20:58.361Z,3.09
2022-12-08T20:23:42.744Z,3.06
2022-12-08T20:26:20.128Z,3.04
2022-12-08T20:29:07.076Z,2.94
2022-12-08T20:31:48.101Z,2.95
2022-12-08T20:34:35.314Z,3.01
2022-12-08T20:37:10.604Z,3.12
2022-12-08T20:39:48.906Z,3.15
2022-12-08T20:42:29.198Z,3.11
2022-12-08T20:45:17.843Z,3.06
2022-12-08T20:48:02.665Z,3.07
2022-12-08T20:50:49.465Z,2.98
2022-12-08T20:53:30.904Z,3.05
2022-12-08T20:56:17.920Z,2.90
2022-12-08T20:58:59.516Z,3.10
2022-12-08T21:01:37.852Z,3.04
2022-12-08T21:04:18.061Z,3.14
2022-12-08T21:07:00.698Z,3.13
2022-12-08T21:09:47.030Z,3.17
2022-12-08T21:12:33.688Z,3.16
2022-12-08T21:15:15.514Z,3.18
2022-12-08T21:18:07.383Z,3.23
2022-12-08T21:20:56.618Z,3.24
2022-12-08T21:23:38.346Z,3.23
2022-12-08T21:26:30.321Z,3.26
2022-12-08T21:29:17.996Z,3.22
2022-12-08T21:32:02.173Z,3.13
2022-12-08T21:34:44.231Z,3.23
2022-12-08T21:37:30.797Z,3.25
2022-12-08T21:40:14.737Z,3.17
2022-12-08T21:43:01.799Z,3.25
2022-12-08T21:45:42.047Z,3.20
2022-12-08T21:48:23.097Z,3.20
2022-12-08T21:51:09.265Z,3.23
2022-12-08T21:54:01.411Z,3.21
2022-12-08T21:56:45.947Z,3.34
2022-12-08T21:59:32.150Z,3.22
2022-12-08T22:02:22.629Z,3.19
2022-12-08T22:05:07.139Z,3.16
2022-12-08T22:08:01.812Z,3.14
2022-12-08T22:11:00.496Z,3.13
2022-12-08T22:13:50.506Z,3.25
2022-12-08T22:16:27.622Z,3.20
2022-12-08T22:19:07.562Z,3.22
2022-12-08T22:21:47.745Z,3.19
2022-12-08T22:24:25.980Z,3.19
2022-12-08T22:27:04.762Z,3.23
2022-12-08T22:29:45.648Z,3.28
2022-12-08T22:32:29.379Z,3.29
2022-12-08T22:35:26.519Z,3.23
2022-12-08T22:38:21.300Z,3.35
2022-12-08T22:41:04.327Z,3.33
2022-12-08T22:43:49.766Z,3.33
2022-12-08T22:46:36.679Z,3.38
2022-12-08T22:49:26.460Z,3.47
2022-12-08T22:52:11.650Z,3.36
2022-12-08T22:54:53.846Z,3.39
2022-12-08T22:57:40.837Z,3.33
2022-12-08T23:00:29.701Z,3.29
2022-12-08T23:03:17.599Z,3.26
2022-12-08T23:05:56.059Z,3.29
2022-12-08T23:08:37.093Z,3.32
2022-12-08T23:11:22.087Z,3.26
2022-12-08T23:14:00.590Z,3.31
2022-12-08T23:16:47.204Z,3.41
2022-12-08T23:19:25.945Z,3.47
2022-12-08T23:22:04.523Z,3.60
2022-12-08T23:24:47.582Z,3.48
2022-12-08T23:27:30.524Z,3.41
2022-12-08T23:30:11.474Z,3.45
2022-12-08T23:33:14.660Z,3.40
2022-12-08T23:36:06.105Z,3.41
2022-12-08T23:38:46.648Z,3.46
2022-12-08T23:41:36.086Z,3.53
2022-12-08T23:44:14.876Z,3.47
2022-12-08T23:46:56.658Z,3.32
2022-12-08T23:49:33.521Z,3.39
2022-12-08T23:52:39.486Z,3.51
2022-12-08T23:55:31.470Z,3.35
2022-12-08T23:58:11.970Z,3.34
